ADDS METAR Data INFO
IDs: Format: Raw Decoded Include TAF

Data at: 2053 UTC 24 Jun 2018

KDAL 241953Z 18021G31KT 10SM FEW055 FEW250 37/21 A2978 RMK AO2 PK WND 17031/1948 SLP076 T03720206
KDAL 241853Z 16016G23KT 10SM FEW050 FEW250 36/21 A2983 RMK AO2 SLP091 T03560211
KDAL 241753Z 18015G22KT 10SM FEW043 SCT250 34/22 A2984 RMK AO2 SLP097 T03390217 10344 20283 58008
KDAL 241653Z 18015G22KT 10SM SCT042 SCT250 33/21 A2986 RMK AO2 SLP103 T03280211
KDAL 241553Z 19016G27KT 10SM FEW032 SCT043 BKN230 32/22 A2986 RMK AO2 PK WND 19027/1550 SLP103 T03220217
KDAL 241453Z 15013KT 10SM SCT032 BKN230 29/22 A2987 RMK AO2 SLP106 T02940222 50021
KDAL 241353Z 18009KT 10SM BKN030 BKN047 BKN230 29/22 A2987 RMK AO2 SLP107 T02890217
KDAL 241253Z 21006KT 10SM BKN030 OVC250 28/22 A2985 RMK AO2 PRESRR SLP100 T02830217
KDAL 241153Z 20011G16KT 10SM BKN031 OVC250 28/22 A2981 RMK AO2 SLP084 T02830217 10306 20278 53039
KDAL 241053Z 19012G20KT 10SM BKN030 OVC065 28/22 A2977 RMK AO2 PK WND 17029/0954 SLP074 T02830222
KDAL 240953Z 18020G32KT 10SM SCT022 BKN050 OVC200 28/22 A2970 RMK AO2 PK WND 18032/0918 SLP050 T02830222
KDAL 240853Z 18019G33KT 10SM FEW045 FEW120 OVC200 28/22 A2969 RMK AO2 PK WND 15038/0759 SLP044 T02830222 55047
KDAL 240753Z 17025G35KT 10SM FEW065 SCT120 OVC200 28/22 A2969 RMK AO2 PK WND 17036/0743 TSE28 PRESFR SLP044 OCNL LTGIC DSNT SW-W CB DSNT SW-W MOV E T02830222
KDAL 240729Z 17025G31KT 10SM FEW065 SCT120 OVC200 29/22 A2973 RMK AO2 PK WND 17031/0723 TSE28 PRESFR OCNL LTGIC DSNT SW-W TS DSIPTD CB DSNT SW-W MOV E T02890222
KDAL 240653Z 16024G32KT 10SM TS FEW065CB SCT120 OVC200 29/22 A2977 RMK AO2 PK WND 16032/0652 TSB40 PRESFR SLP072 OCNL LTGIC SW-W TS SW-W MOV E T02940222
KDAL 240641Z 18021KT 10SM TS FEW065CB SCT120 OVC200 29/22 A2979 RMK AO2 PK WND 17026/0622 TSB40 OCNL LTGIC SW-W TS SW-W MOV E T02940222
KDAL 240553Z 19014G19KT 10SM FEW065 FEW120 BKN200 31/22 A2983 RMK AO2 SLP093 OCNL LTGIC DSNT SW NW CB DSNT SW NW MOV E T03060217 10350 20306 403610261 51032
KDAL 240453Z 16012KT 10SM FEW065 FEW120 SCT200 31/22 A2980 RMK AO2 PK WND 14026/0415 SLP081 OCNL LTGIC DSNT NW CB DSNT NW MOV E T03110217
KDAL 240353Z 15016KT 10SM FEW065 FEW120 BKN250 32/22 A2978 RMK AO2 SLP076 OCNL LTGIC DSNT NW CB DSNT NW MOV E T03170217
KDAL 240253Z 14017KT 10SM FEW065 SCT120 BKN250 32/22 A2973 RMK AO2 SLP060 OCNL LTGIC DSNT NW CB DSNT NW MOV E T03220217 50003
KDAL 240153Z 13015KT 10SM FEW065 BKN070 BKN250 33/22 A2974 RMK AO2 SLP061 CB DSNT NW MOV E T03280217
KDAL 240053Z 14014KT 10SM FEW065 SCT070 34/21 A2973 RMK AO2 SLP059 T03390211
KDAL 232353Z 13017KT 10SM FEW060 SCT070 34/21 A2972 RMK AO2 SLP057 T03440211 10361 20328 56010
KDAL 232253Z 13019G25KT 10SM FEW060 36/21 A2973 RMK AO2 PK WND 13026/2225 SLP057 T03610211
KDAL 232153Z 14018G21KT 10SM FEW050 FEW070 36/22 A2974 RMK AO2 PK WND 15026/2127 SLP063 T03610217
KDAL 232053Z 15014G25KT 10SM FEW050 SCT060 36/22 A2975 RMK AO2 PK WND 14027/2037 SLP067 SCT060 V BKN T03560222 56024
KDAL 231953Z 14018G24KT 10SM FEW050 SCT055 BKN060 36/23 A2976 RMK AO2 PK WND 14026/1942 SLP070 T03560233
KDAL 231853Z 17015G20KT 10SM SCT045 BKN055 BKN065 34/23 A2979 RMK AO2 SLP080 MDT CU N-NE T03440233
KDAL 231753Z COR 11012G20KT 10SM SCT045TCU SCT075 SCT250 33/24 A2983 RMK AO2 SLP091 TCU SE MDT CU SE-SW 60000 T03280244 10328 20261 58013
KDAL 231653Z 09014G19KT 10SM SCT025 BKN036 BKN055 BKN250 31/23 A2986 RMK AO2 SLP103 T03060233
KDAL 231624Z 08012KT 10SM SCT025 BKN032 BKN055 29/22 A2986 RMK AO2 T02940222
KDAL 231553Z 06013KT 10SM BKN028 BKN060 28/22 A2987 RMK AO2 SLP105 T02780217
KDAL 231523Z 06012KT 10SM BKN023 BKN065 28/22 A2987 RMK AO2 T02830222
KDAL 231453Z 08008KT 10SM FEW022 SCT055 SCT250 29/24 A2987 RMK AO2 SLP105 60000 T02940239 50020
KDAL 231433Z 10007KT 10SM SCT022 BKN055 BKN250 28/22 A2987 RMK AO2 T02780222
KDAL 231353Z 06009KT 10SM OVC019 26/22 A2987 RMK AO2 SLP107 T02610222
KDAL 231253Z 06006KT 10SM BKN022 OVC035 27/22 A2985 RMK AO2 RAB19E38 SLP098 P0000 T02720222
KDAL 231153Z 11008KT 10SM BKN028 BKN040 OVC250 27/21 A2981 RMK AO2 RAE1054 SLP084 P0000 60000 T02670206 10317 20267 58002
KDAL 231149Z 11008KT 10SM BKN028 BKN040 OVC250 27/21 A2980 RMK AO2 RAE1054 P0000
KDAL 231053Z COR 09013KT 10SM -RA BKN030 BKN038 BKN060 27/19 A2981 RMK AO2 RAB42 SLP085 P0000 T02670194
KDAL 231043Z 08011KT 10SM -RA BKN030 BKN036 OVC070 27/19 A2981 RMK AO2 RAB42 P0000 T02670194
KDAL 230953Z 06010KT 10SM BKN027 OVC036 27/19 A2981 RMK AO2 SLP087 T02720194
KDAL 230938Z 06011KT 10SM BKN027 OVC036 28/20 A2981 RMK AO2 T02780200